createdAt,value
2023-05-01T00:00:25.470Z,991.53
2023-05-01T00:01:27.225Z,991.51
2023-05-01T00:02:30.610Z,991.53
2023-05-01T00:03:30.960Z,991.51
2023-05-01T00:04:32.570Z,991.49
2023-05-01T00:05:34.142Z,991.5
2023-05-01T00:06:35.941Z,991.48
2023-05-01T00:07:37.677Z,991.5
2023-05-01T00:08:39.583Z,991.43
2023-05-01T00:09:41.072Z,991.44
2023-05-01T00:10:42.822Z,991.41
2023-05-01T00:11:44.592Z,991.43
2023-05-01T00:12:46.278Z,991.35
2023-05-01T00:13:48.007Z,991.32
2023-05-01T00:14:49.735Z,991.32
2023-05-01T00:15:51.552Z,991.33
2023-05-01T00:16:53.312Z,991.34
2023-05-01T00:17:54.978Z,991.33
2023-05-01T00:18:56.673Z,991.3
2023-05-01T00:19:58.735Z,991.3
2023-05-01T00:21:00.141Z,991.3
2023-05-01T00:22:01.917Z,991.3
2023-05-01T00:23:03.609Z,991.3
2023-05-01T00:24:05.387Z,991.29
2023-05-01T00:25:07.140Z,991.22
2023-05-01T00:26:08.860Z,991.26
2023-05-01T00:27:10.580Z,991.24
2023-05-01T00:28:12.297Z,991.27
2023-05-01T00:29:14.040Z,991.26
2023-05-01T00:30:15.736Z,991.26
2023-05-01T00:31:17.564Z,991.26
2023-05-01T00:32:19.682Z,991.22
2023-05-01T00:33:20.989Z,991.23
2023-05-01T00:34:22.673Z,991.23
2023-05-01T00:35:24.412Z,991.2
2023-05-01T00:36:26.150Z,991.15
2023-05-01T00:37:27.886Z,991.13
2023-05-01T00:38:29.672Z,991.15
2023-05-01T00:39:31.360Z,991.2
2023-05-01T00:40:33.094Z,991.19
2023-05-01T00:41:34.819Z,991.15
2023-05-01T00:42:36.593Z,991.1
2023-05-01T00:43:38.324Z,991.15
2023-05-01T00:44:40.050Z,991.1
2023-05-01T00:45:41.820Z,991.12
2023-05-01T00:46:43.478Z,991.04
2023-05-01T00:47:45.264Z,991.07
2023-05-01T00:48:46.970Z,991.07
2023-05-01T00:49:48.734Z,991.01
2023-05-01T00:50:50.428Z,991.02
2023-05-01T00:51:52.197Z,991.05
2023-05-01T00:52:53.898Z,991.01
2023-05-01T00:53:55.673Z,991.03
2023-05-01T00:54:57.400Z,991
2023-05-01T00:55:59.101Z,990.97
2023-05-01T00:57:00.850Z,990.98
2023-05-01T00:58:02.562Z,990.95
2023-05-01T00:59:04.349Z,990.96
2023-05-01T01:00:06.077Z,990.93
2023-05-01T01:01:07.881Z,990.98
2023-05-01T01:02:09.539Z,990.94
2023-05-01T01:03:11.271Z,990.95
2023-05-01T01:04:13.019Z,990.96
2023-05-01T01:05:14.709Z,990.85
2023-05-01T01:06:16.542Z,990.92
2023-05-01T01:07:18.185Z,990.89
2023-05-01T01:08:19.929Z,990.84
2023-05-01T01:09:21.704Z,990.9
2023-05-01T01:10:23.442Z,990.84
2023-05-01T01:11:25.091Z,990.87
2023-05-01T01:12:26.867Z,990.79
2023-05-01T01:13:28.576Z,990.79
2023-05-01T01:14:30.300Z,990.81
2023-05-01T01:15:32.037Z,990.78
2023-05-01T01:16:33.840Z,990.79
2023-05-01T01:17:35.510Z,990.73
2023-05-01T01:18:37.221Z,990.78
2023-05-01T01:19:38.961Z,990.79
2023-05-01T01:20:40.732Z,990.75
2023-05-01T01:21:42.428Z,990.75
2023-05-01T01:22:44.171Z,990.73
2023-05-01T01:23:45.917Z,990.67
2023-05-01T01:24:47.684Z,990.69
2023-05-01T01:25:49.396Z,990.67
2023-05-01T01:26:51.108Z,990.65
2023-05-01T01:27:52.838Z,990.66
2023-05-01T01:28:54.561Z,990.63
2023-05-01T01:29:56.832Z,990.63
2023-05-01T01:30:58.133Z,990.62
2023-05-01T01:31:59.792Z,990.63
2023-05-01T01:33:01.669Z,990.63
2023-05-01T01:34:03.238Z,990.67
2023-05-01T01:35:05.028Z,990.64
2023-05-01T01:36:06.710Z,990.57
2023-05-01T01:37:08.437Z,990.66
2023-05-01T01:38:10.170Z,990.65
2023-05-01T01:39:11.948Z,990.66
2023-05-01T01:40:13.675Z,990.61
2023-05-01T01:41:15.382Z,990.63
2023-05-01T01:42:17.191Z,990.63
2023-05-01T01:43:18.943Z,990.6
2023-05-01T01:44:20.622Z,990.61
2023-05-01T01:45:22.362Z,990.58
2023-05-01T01:46:24.079Z,990.61
2023-05-01T01:47:25.864Z,990.59
2023-05-01T01:48:27.513Z,990.58
2023-05-01T01:49:29.292Z,990.61
2023-05-01T01:50:30.982Z,990.61
2023-05-01T01:51:32.745Z,990.58
2023-05-01T01:52:34.456Z,990.59
2023-05-01T01:53:36.215Z,990.55
2023-05-01T01:54:37.959Z,990.54
2023-05-01T01:55:39.692Z,990.54
2023-05-01T01:56:41.373Z,990.53
2023-05-01T01:57:43.174Z,990.55
2023-05-01T01:58:44.881Z,990.54
2023-05-01T01:59:46.620Z,990.46
2023-05-01T02:00:48.357Z,990.5
2023-05-01T02:01:50.228Z,990.53
2023-05-01T02:02:51.900Z,990.48
2023-05-01T02:03:53.696Z,990.51
2023-05-01T02:04:55.283Z,990.41
2023-05-01T02:05:57.087Z,990.43
2023-05-01T02:06:58.850Z,990.45
2023-05-01T02:08:00.500Z,990.5
2023-05-01T02:09:02.224Z,990.41
2023-05-01T02:10:03.954Z,990.43
2023-05-01T02:11:05.669Z,990.47
2023-05-01T02:12:07.388Z,990.48
2023-05-01T02:13:09.137Z,990.48
2023-05-01T02:14:10.900Z,990.5
2023-05-01T02:15:12.597Z,990.43
2023-05-01T02:16:14.390Z,990.5
2023-05-01T02:17:16.071Z,990.49
2023-05-01T02:18:17.843Z,990.51
2023-05-01T02:19:19.538Z,990.51
2023-05-01T02:20:21.312Z,990.53
2023-05-01T02:21:23.005Z,990.47
2023-05-01T02:22:24.754Z,990.48
2023-05-01T02:23:26.512Z,990.47
2023-05-01T02:24:28.221Z,990.47
2023-05-01T02:25:30.040Z,990.45
2023-05-01T02:26:31.721Z,990.45
2023-05-01T02:27:33.464Z,990.46
2023-05-01T02:28:35.223Z,990.43
2023-05-01T02:29:36.919Z,990.41
2023-05-01T02:30:38.675Z,990.43
2023-05-01T02:31:40.530Z,990.42
2023-05-01T02:32:42.189Z,990.37
2023-05-01T02:33:43.860Z,990.41
2023-05-01T02:34:45.583Z,990.4
2023-05-01T02:35:47.395Z,990.36
2023-05-01T02:36:49.065Z,990.4
2023-05-01T02:37:50.798Z,990.43
2023-05-01T02:38:52.509Z,990.42
2023-05-01T02:39:54.586Z,990.35
2023-05-01T02:40:55.985Z,990.37
2023-05-01T02:41:57.707Z,990.43
2023-05-01T02:42:59.429Z,990.36
2023-05-01T02:44:01.181Z,990.33
2023-05-01T02:45:02.918Z,990.34
2023-05-01T02:46:04.772Z,990.34
2023-05-01T02:47:06.431Z,990.34
2023-05-01T02:48:08.169Z,990.28
2023-05-01T02:49:09.857Z,990.3
2023-05-01T02:50:11.570Z,990.29
2023-05-01T02:51:13.342Z,990.29
2023-05-01T02:52:15.079Z,990.3
2023-05-01T02:53:16.765Z,990.27
2023-05-01T02:54:18.510Z,990.28
2023-05-01T02:55:20.267Z,990.26
2023-05-01T02:56:22.004Z,990.3
2023-05-01T02:57:23.737Z,990.32
2023-05-01T02:58:25.453Z,990.25
2023-05-01T02:59:27.196Z,990.28
2023-05-01T03:00:28.920Z,990.29
2023-05-01T03:01:30.745Z,990.3
2023-05-01T03:02:32.520Z,990.29
2023-05-01T03:03:34.171Z,990.26
2023-05-01T03:04:36.034Z,990.25
2023-05-01T03:05:37.589Z,990.28
2023-05-01T03:06:39.494Z,990.25
2023-05-01T03:07:41.083Z,990.23
2023-05-01T03:08:42.811Z,990.23
2023-05-01T03:09:44.526Z,990.23
2023-05-01T03:10:46.282Z,990.18
2023-05-01T03:11:47.990Z,990.22
2023-05-01T03:12:49.761Z,990.24
2023-05-01T03:13:51.469Z,990.24
2023-05-01T03:14:53.192Z,990.26
2023-05-01T03:15:54.990Z,990.19
2023-05-01T03:16:56.664Z,990.2
2023-05-01T03:17:58.446Z,990.15
2023-05-01T03:19:00.148Z,990.19
2023-05-01T03:20:01.873Z,990.11
2023-05-01T03:21:03.617Z,990.16
2023-05-01T03:22:05.477Z,990.18
2023-05-01T03:23:07.108Z,990.16
2023-05-01T03:24:08.829Z,990.13
2023-05-01T03:25:10.604Z,990.13
2023-05-01T03:26:12.272Z,990.16
2023-05-01T03:27:14.003Z,990.16
2023-05-01T03:28:15.747Z,990.16
2023-05-01T03:29:17.499Z,990.15
2023-05-01T03:30:19.222Z,990.13
2023-05-01T03:31:20.967Z,990.12
2023-05-01T03:32:22.926Z,990.13
2023-05-01T03:33:24.408Z,990.13
2023-05-01T03:34:26.137Z,990.13
2023-05-01T03:35:27.913Z,990.11
2023-05-01T03:36:29.618Z,990.07
2023-05-01T03:37:31.448Z,990.11
2023-05-01T03:38:33.069Z,990.08
2023-05-01T03:39:34.817Z,990.06
2023-05-01T03:40:36.535Z,990
2023-05-01T03:41:38.276Z,990.09
2023-05-01T03:42:40.005Z,990.07
2023-05-01T03:43:41.752Z,990.03
2023-05-01T03:44:43.507Z,990.07
2023-05-01T03:45:45.265Z,990.03
2023-05-01T03:46:47.065Z,990.06
2023-05-01T03:47:48.736Z,990.08
2023-05-01T03:48:50.464Z,990.09
2023-05-01T03:49:52.158Z,990.06
2023-05-01T03:50:53.872Z,990.07
2023-05-01T03:51:55.634Z,990.02
2023-05-01T03:52:57.364Z,990.04
2023-05-01T03:53:59.115Z,990.01
2023-05-01T03:55:00.811Z,990.01
2023-05-01T03:56:02.553Z,990.06
2023-05-01T03:57:04.300Z,990.05
2023-05-01T03:58:06.102Z,990.03
2023-05-01T03:59:07.784Z,990.03
2023-05-01T04:00:09.537Z,990.04
2023-05-01T04:01:11.229Z,990.03
2023-05-01T04:02:13.036Z,989.97
2023-05-01T04:03:14.757Z,990.02
2023-05-01T04:04:16.634Z,989.99
2023-05-01T04:05:18.178Z,990.01
2023-05-01T04:06:19.899Z,990.06
2023-05-01T04:07:21.600Z,990.01
2023-05-01T04:08:23.341Z,990.03
2023-05-01T04:09:25.170Z,990.02
2023-05-01T04:10:26.920Z,990.04
2023-05-01T04:11:28.525Z,990
2023-05-01T04:12:30.229Z,990.02
2023-05-01T04:13:32.423Z,990.06
2023-05-01T04:14:34.379Z,990.04
2023-05-01T04:15:35.944Z,990.06
2023-05-01T04:16:37.958Z,990.05
2023-05-01T04:17:39.434Z,990.03
2023-05-01T04:18:41.159Z,990.02
2023-05-01T04:19:42.828Z,990.01
2023-05-01T04:20:44.579Z,990.03
2023-05-01T04:21:46.335Z,990.03
2023-05-01T04:22:48.102Z,990.03
2023-05-01T04:23:49.884Z,990
2023-05-01T04:24:51.507Z,989.98
2023-05-01T04:25:53.255Z,989.99
2023-05-01T04:26:54.970Z,990.02
2023-05-01T04:27:56.956Z,989.99
2023-05-01T04:28:58.509Z,989.95
2023-05-01T04:30:00.892Z,989.96
2023-05-01T04:31:01.960Z,989.97
2023-05-01T04:32:03.802Z,989.96
2023-05-01T04:33:05.438Z,989.97
2023-05-01T04:34:07.238Z,990.02
2023-05-01T04:35:09.052Z,989.97
2023-05-01T04:36:10.633Z,990.02
2023-05-01T04:37:18.780Z,990.03
2023-05-01T04:38:19.265Z,990.01
2023-05-01T04:39:21.044Z,990.01
2023-05-01T04:40:22.654Z,990
2023-05-01T04:41:24.407Z,990.02
2023-05-01T04:42:26.218Z,990.04
2023-05-01T04:43:29.804Z,989.99
2023-05-01T04:44:34.822Z,990
2023-05-01T04:45:36.597Z,990
2023-05-01T04:46:38.413Z,990.03
2023-05-01T04:47:40.251Z,990.04
2023-05-01T04:48:41.742Z,990.03
2023-05-01T04:49:43.443Z,990.02
2023-05-01T04:50:45.285Z,990.03
2023-05-01T04:51:46.987Z,990.06
2023-05-01T04:52:48.704Z,990.07
2023-05-01T04:53:50.421Z,990.06
2023-05-01T04:54:52.134Z,989.98
2023-05-01T04:55:53.887Z,990.01
2023-05-01T04:56:55.580Z,990.04
2023-05-01T04:57:57.337Z,990.03
2023-05-01T04:58:59.110Z,990.06
2023-05-01T05:00:00.854Z,990.05
2023-05-01T05:01:02.546Z,990.02
2023-05-01T05:02:04.362Z,990.09
2023-05-01T05:03:06.116Z,990.02
2023-05-01T05:04:08.014Z,990.08
2023-05-01T05:05:09.526Z,990.04
2023-05-01T05:06:11.383Z,990.08
2023-05-01T05:07:12.905Z,990.06
2023-05-01T05:08:14.634Z,990.05
2023-05-01T05:09:19.466Z,990.09
2023-05-01T05:10:18.205Z,990.09
2023-05-01T05:11:19.919Z,990.03
2023-05-01T05:12:21.866Z,990.03
2023-05-01T05:13:23.348Z,990.06
2023-05-01T05:14:25.046Z,990.05
2023-05-01T05:15:26.788Z,990.05
2023-05-01T05:16:28.652Z,990.03
2023-05-01T05:17:30.329Z,990.04
2023-05-01T05:18:32.053Z,990.06
2023-05-01T05:19:33.725Z,990.04
2023-05-01T05:20:35.448Z,990.02
2023-05-01T05:21:37.242Z,990.07
2023-05-01T05:22:38.996Z,990.06
2023-05-01T05:23:40.752Z,990.05
2023-05-01T05:24:42.504Z,990.05
2023-05-01T05:25:44.138Z,990.08
2023-05-01T05:26:45.887Z,990.06
2023-05-01T05:27:47.630Z,990.08
2023-05-01T05:28:49.447Z,990.07
2023-05-01T05:29:51.127Z,990.03
2023-05-01T05:30:52.844Z,990.1
2023-05-01T05:31:54.610Z,990.1
2023-05-01T05:32:56.295Z,990.1
2023-05-01T05:33:58.064Z,990.12
2023-05-01T05:34:59.810Z,990.08
2023-05-01T05:36:01.647Z,990.11
2023-05-01T05:37:03.249Z,990.13
2023-05-01T05:38:04.969Z,990.07
2023-05-01T05:39:06.690Z,990.05
2023-05-01T05:40:08.450Z,990.07
2023-05-01T05:41:10.229Z,990.03
2023-05-01T05:42:11.980Z,990.02
2023-05-01T05:43:13.656Z,989.98
2023-05-01T05:44:15.336Z,989.97
2023-05-01T05:45:17.078Z,989.98
2023-05-01T05:46:18.904Z,989.97
2023-05-01T05:47:20.595Z,989.98
2023-05-01T05:48:23.003Z,989.96
2023-05-01T05:49:24.085Z,989.93
2023-05-01T05:50:25.762Z,989.98
2023-05-01T05:51:27.479Z,989.89
2023-05-01T05:52:29.282Z,989.96
2023-05-01T05:53:31.038Z,989.94
2023-05-01T05:54:32.749Z,990.01
2023-05-01T05:55:34.470Z,989.98
2023-05-01T05:56:36.169Z,989.98
2023-05-01T05:57:37.902Z,989.97
2023-05-01T05:58:39.657Z,989.96
2023-05-01T05:59:41.454Z,989.94
2023-05-01T06:00:43.181Z,989.97
2023-05-01T06:01:44.974Z,990.03
2023-05-01T06:02:46.680Z,990.07
2023-05-01T06:03:48.346Z,990.02
2023-05-01T06:04:50.231Z,990.03
2023-05-01T06:05:51.857Z,990.07
2023-05-01T06:06:53.602Z,990.05
2023-05-01T06:07:55.259Z,990.06
2023-05-01T06:08:56.976Z,990.03
2023-05-01T06:09:58.854Z,990.02
2023-05-01T06:11:00.480Z,990.07
2023-05-01T06:12:02.526Z,990.01
2023-05-01T06:13:13.245Z,990.02
2023-05-01T06:14:05.695Z,989.94
2023-05-01T06:15:07.382Z,990.05
2023-05-01T06:16:09.165Z,989.96
2023-05-01T06:17:10.890Z,990
2023-05-01T06:18:12.815Z,989.97
2023-05-01T06:19:14.338Z,989.93
2023-05-01T06:20:16.194Z,989.93
2023-05-01T06:21:17.812Z,989.88
2023-05-01T06:22:19.518Z,989.89
2023-05-01T06:23:21.302Z,989.9
2023-05-01T06:24:23.024Z,989.9
2023-05-01T06:25:24.814Z,989.86
2023-05-01T06:26:26.515Z,989.86
2023-05-01T06:27:28.230Z,989.94
2023-05-01T06:28:29.955Z,989.93
2023-05-01T06:29:31.680Z,989.9
2023-05-01T06:30:33.429Z,989.86
2023-05-01T06:31:35.172Z,989.91
2023-05-01T06:32:37.055Z,989.85
2023-05-01T06:33:38.645Z,989.82
2023-05-01T06:34:40.357Z,989.83
2023-05-01T06:35:42.048Z,989.83
2023-05-01T06:36:43.831Z,989.82
2023-05-01T06:37:45.620Z,989.81
2023-05-01T06:38:47.272Z,989.87
2023-05-01T06:39:48.985Z,989.82
2023-05-01T06:40:50.758Z,989.83
2023-05-01T06:41:52.495Z,989.84
2023-05-01T06:42:54.251Z,989.83
2023-05-01T06:43:55.961Z,989.83
2023-05-01T06:44:57.822Z,989.81
2023-05-01T06:45:59.439Z,989.81
2023-05-01T06:47:02.739Z,989.79
2023-05-01T06:48:02.881Z,989.76
2023-05-01T06:49:04.595Z,989.79
2023-05-01T06:50:06.335Z,989.79
2023-05-01T06:51:08.114Z,989.81
2023-05-01T06:52:10.022Z,989.82
2023-05-01T06:53:11.537Z,989.8
2023-05-01T06:54:13.269Z,989.77
2023-05-01T06:55:15.004Z,989.74
2023-05-01T06:56:17.114Z,989.74
2023-05-01T06:57:18.603Z,989.73
2023-05-01T06:58:23.827Z,989.75
2023-05-01T06:59:22.062Z,989.67
2023-05-01T07:00:23.689Z,989.67
2023-05-01T07:01:25.463Z,989.67
2023-05-01T07:02:27.247Z,989.73
2023-05-01T07:03:30.716Z,989.7
2023-05-01T07:04:30.681Z,989.69
2023-05-01T07:05:32.464Z,989.65
2023-05-01T07:06:34.114Z,989.68
2023-05-01T07:07:36.625Z,989.69
2023-05-01T07:08:37.663Z,989.65
2023-05-01T07:09:39.348Z,989.73
2023-05-01T07:10:42.291Z,989.72
2023-05-01T07:11:42.807Z,989.72
2023-05-01T07:12:44.563Z,989.67
2023-05-01T07:13:46.250Z,989.72
2023-05-01T07:14:47.953Z,989.7
2023-05-01T07:15:50.383Z,989.63
2023-05-01T07:16:51.569Z,989.68
2023-05-01T07:17:53.573Z,989.71
2023-05-01T07:18:55.161Z,989.7
2023-05-01T07:19:56.979Z,989.67
2023-05-01T07:20:58.374Z,989.69
2023-05-01T07:22:00.061Z,989.68
2023-05-01T07:23:02.922Z,989.67
2023-05-01T07:24:03.559Z,989.69
2023-05-01T07:25:05.289Z,989.66
2023-05-01T07:26:08.781Z,989.66
2023-05-01T07:27:08.938Z,989.62
2023-05-01T07:28:10.456Z,989.63
2023-05-01T07:29:12.315Z,989.62
2023-05-01T07:30:14.167Z,989.65
2023-05-01T07:31:15.780Z,989.65
2023-05-01T07:32:17.515Z,989.66
2023-05-01T07:33:19.195Z,989.67
2023-05-01T07:34:20.855Z,989.7
2023-05-01T07:35:22.601Z,989.69
2023-05-01T07:36:24.440Z,989.7
2023-05-01T07:37:26.178Z,989.67
2023-05-01T07:38:27.868Z,989.67
2023-05-01T07:39:29.544Z,989.71
2023-05-01T07:40:31.282Z,989.73
2023-05-01T07:41:33.021Z,989.73
2023-05-01T07:42:34.734Z,989.72
2023-05-01T07:43:36.647Z,989.73
2023-05-01T07:44:38.328Z,989.72
2023-05-01T07:45:40.112Z,989.72
2023-05-01T07:46:41.654Z,989.73
2023-05-01T07:47:43.502Z,989.74
2023-05-01T07:48:45.241Z,989.7
2023-05-01T07:49:49.660Z,989.77
2023-05-01T07:50:50.182Z,989.76
2023-05-01T07:51:50.379Z,989.77
2023-05-01T07:52:52.116Z,989.73
2023-05-01T07:53:53.861Z,989.73
2023-05-01T07:54:55.669Z,989.71
2023-05-01T07:55:57.374Z,989.69
2023-05-01T07:56:59.138Z,989.66
2023-05-01T07:58:00.780Z,989.67
2023-05-01T07:59:02.557Z,989.67
2023-05-01T08:00:04.253Z,989.67
2023-05-01T08:01:06.045Z,989.68
2023-05-01T08:02:07.851Z,989.68
2023-05-01T08:03:09.670Z,989.68
2023-05-01T08:04:11.339Z,989.69
2023-05-01T08:05:12.918Z,989.69
2023-05-01T08:06:14.712Z,989.68
2023-05-01T08:07:16.519Z,989.66
2023-05-01T08:08:18.186Z,989.66
2023-05-01T08:09:19.925Z,989.65
2023-05-01T08:10:21.603Z,989.66
2023-05-01T08:11:23.357Z,989.64
2023-05-01T08:12:25.064Z,989.69
2023-05-01T08:13:26.891Z,989.65
2023-05-01T08:14:28.679Z,989.58
2023-05-01T08:15:30.519Z,989.55
2023-05-01T08:16:32.105Z,989.57
2023-05-01T08:17:33.807Z,989.55
2023-05-01T08:18:35.461Z,989.53
2023-05-01T08:19:37.312Z,989.58
2023-05-01T08:20:38.990Z,989.49
2023-05-01T08:21:40.663Z,989.59
2023-05-01T08:22:42.382Z,989.58
2023-05-01T08:23:44.161Z,989.56
2023-05-01T08:24:45.899Z,989.6
2023-05-01T08:25:47.609Z,989.59
2023-05-01T08:26:49.353Z,989.59
2023-05-01T08:27:51.128Z,989.58
2023-05-01T08:28:52.909Z,989.55
2023-05-01T08:29:57.051Z,989.58
2023-05-01T08:31:01.557Z,989.59
2023-05-01T08:32:03.199Z,989.57
2023-05-01T08:33:04.904Z,989.62
2023-05-01T08:34:06.572Z,989.58
2023-05-01T08:35:08.330Z,989.6
2023-05-01T08:36:10.096Z,989.53
2023-05-01T08:37:11.847Z,989.53
2023-05-01T08:38:13.602Z,989.5
2023-05-01T08:39:15.240Z,989.56
2023-05-01T08:40:16.996Z,989.55
2023-05-01T08:41:18.741Z,989.6
2023-05-01T08:42:20.498Z,989.55
2023-05-01T08:43:22.284Z,989.57
2023-05-01T08:44:23.999Z,989.61
2023-05-01T08:45:25.654Z,989.57
2023-05-01T08:46:27.406Z,989.56
2023-05-01T08:47:29.215Z,989.59
2023-05-01T08:48:30.893Z,989.6
2023-05-01T08:49:32.658Z,989.57
2023-05-01T08:50:34.411Z,989.54
2023-05-01T08:51:36.086Z,989.54
2023-05-01T08:52:37.829Z,989.55
2023-05-01T08:53:39.509Z,989.53
2023-05-01T08:54:41.325Z,989.56
2023-05-01T08:55:43.038Z,989.53
2023-05-01T08:56:44.797Z,989.52
2023-05-01T08:57:46.660Z,989.5
2023-05-01T08:58:48.244Z,989.49
2023-05-01T08:59:49.923Z,989.49
2023-05-01T09:00:51.744Z,989.52
2023-05-01T09:01:53.497Z,989.54
2023-05-01T09:02:55.267Z,989.56
2023-05-01T09:03:56.925Z,989.58
2023-05-01T09:04:58.622Z,989.56
2023-05-01T09:06:00.384Z,989.58
2023-05-01T09:07:02.110Z,989.55
2023-05-01T09:08:03.828Z,989.54
2023-05-01T09:09:05.527Z,989.59
2023-05-01T09:10:07.258Z,989.59
2023-05-01T09:11:09.013Z,989.58
2023-05-01T09:12:10.717Z,989.59
2023-05-01T09:13:13.526Z,989.56
2023-05-01T09:14:14.287Z,989.56
2023-05-01T09:15:16.060Z,989.54
2023-05-01T09:16:17.882Z,989.53
2023-05-01T09:17:19.470Z,989.51
2023-05-01T09:18:21.193Z,989.58
2023-05-01T09:19:23.034Z,989.52
2023-05-01T09:20:25.242Z,989.53
2023-05-01T09:21:27.085Z,989.55
2023-05-01T09:22:28.142Z,989.53
2023-05-01T09:23:29.826Z,989.52
2023-05-01T09:24:31.574Z,989.5
2023-05-01T09:25:38.628Z,989.5
2023-05-01T09:26:40.150Z,989.47
2023-05-01T09:27:41.880Z,989.46
2023-05-01T09:28:43.732Z,989.46
2023-05-01T09:29:45.372Z,989.43
2023-05-01T09:30:47.181Z,989.47
2023-05-01T09:31:48.909Z,989.41
2023-05-01T09:32:50.706Z,989.35
2023-05-01T09:33:52.293Z,989.41
2023-05-01T09:34:54.129Z,989.4
2023-05-01T09:35:55.831Z,989.41
2023-05-01T09:36:57.853Z,989.37
2023-05-01T09:37:59.241Z,989.33
2023-05-01T09:39:01.045Z,989.37
2023-05-01T09:40:02.685Z,989.37
2023-05-01T09:41:04.434Z,989.33
2023-05-01T09:42:06.292Z,989.31
2023-05-01T09:43:09.509Z,989.33
2023-05-01T09:44:09.688Z,989.35
2023-05-01T09:45:11.354Z,989.29
2023-05-01T09:46:13.360Z,989.33
2023-05-01T09:47:14.338Z,989.31
2023-05-01T09:48:16.710Z,989.32
2023-05-01T09:49:18.337Z,989.34
2023-05-01T09:50:25.319Z,989.35
2023-05-01T09:51:27.166Z,989.36
2023-05-01T09:52:28.812Z,989.38
2023-05-01T09:53:30.542Z,989.36
2023-05-01T09:54:32.406Z,989.36
2023-05-01T09:55:33.908Z,989.37
2023-05-01T09:56:35.611Z,989.35
2023-05-01T09:57:37.411Z,989.36
2023-05-01T09:58:39.151Z,989.33
2023-05-01T09:59:51.455Z,989.26
2023-05-01T10:00:59.609Z,989.31
2023-05-01T10:01:59.965Z,989.3
2023-05-01T10:03:01.839Z,989.3
2023-05-01T10:04:03.317Z,989.32
2023-05-01T10:05:05.017Z,989.32
2023-05-01T10:06:06.852Z,989.34
2023-05-01T10:07:08.479Z,989.3
2023-05-01T10:08:10.243Z,989.32
2023-05-01T10:09:12.013Z,989.31
2023-05-01T10:10:13.807Z,989.29
2023-05-01T10:11:15.455Z,989.27
2023-05-01T10:12:17.209Z,989.27
2023-05-01T10:13:50.365Z,989.28
2023-05-01T10:16:36.349Z,989.31
2023-05-01T10:17:38.477Z,989.3
2023-05-01T10:18:41.595Z,989.29
2023-05-01T10:19:44.988Z,989.31
2023-05-01T10:20:46.733Z,989.31
2023-05-01T10:21:53.074Z,989.31
2023-05-01T10:23:08.050Z,989.32
2023-05-01T10:24:23.297Z,989.32
2023-05-01T10:25:30.944Z,989.33
2023-05-01T10:26:47.836Z,989.27
2023-05-01T10:35:43.179Z,989.35
2023-05-01T10:36:47.764Z,989.3
2023-05-01T10:37:49.493Z,989.35
2023-05-01T10:38:51.387Z,989.31
2023-05-01T10:39:53.025Z,989.32
2023-05-01T10:40:54.741Z,989.32
2023-05-01T10:41:56.405Z,989.35
2023-05-01T10:42:58.132Z,989.31
2023-05-01T10:43:59.880Z,989.32
2023-05-01T10:45:01.614Z,989.33
2023-05-01T10:46:03.447Z,989.31
2023-05-01T10:47:05.006Z,989.31
2023-05-01T10:48:06.823Z,989.27
2023-05-01T10:49:08.882Z,989.24
2023-05-01T10:50:10.189Z,989.22
2023-05-01T10:51:12.094Z,989.25
2023-05-01T10:52:13.645Z,989.22
2023-05-01T10:53:15.453Z,989.2
2023-05-01T10:54:19.775Z,989.19
2023-05-01T10:55:24.781Z,989.22
2023-05-01T10:56:25.722Z,989.17
2023-05-01T10:57:27.669Z,989.18
2023-05-01T10:58:29.135Z,989.22
2023-05-01T10:59:30.987Z,989.21
2023-05-01T11:00:32.710Z,989.24
2023-05-01T11:01:34.468Z,989.17
2023-05-01T11:02:36.157Z,989.16
2023-05-01T11:03:37.874Z,989.15
2023-05-01T11:04:39.650Z,989.22
2023-05-01T11:05:41.382Z,989.19
2023-05-01T11:06:43.273Z,989.2
2023-05-01T11:07:44.797Z,989.19
2023-05-01T11:08:46.706Z,989.19
2023-05-01T11:09:48.267Z,989.18
2023-05-01T11:10:50.063Z,989.17
2023-05-01T11:11:51.715Z,989.19
2023-05-01T11:12:53.468Z,989.14
2023-05-01T11:13:55.173Z,989.18
2023-05-01T11:14:57.325Z,989.16
2023-05-01T11:15:58.790Z,989.14
2023-05-01T11:17:00.414Z,989.13
2023-05-01T11:18:02.235Z,989.09
2023-05-01T11:19:03.843Z,989.09
2023-05-01T11:20:05.580Z,989.06
2023-05-01T11:21:07.299Z,989.05
2023-05-01T11:22:09.033Z,989.03
2023-05-01T11:23:10.790Z,989.04
2023-05-01T11:24:12.555Z,989.08
2023-05-01T11:25:14.303Z,989.02
2023-05-01T11:26:15.982Z,989.04
2023-05-01T11:27:17.750Z,988.99
2023-05-01T11:28:19.553Z,988.98
2023-05-01T11:29:21.423Z,989.01
2023-05-01T11:30:23.076Z,988.98
2023-05-01T11:31:24.743Z,988.98
2023-05-01T11:32:26.473Z,988.96
2023-05-01T11:33:28.140Z,988.98
2023-05-01T11:34:30.642Z,988.97
2023-05-01T11:35:31.624Z,988.93
2023-05-01T11:36:33.651Z,988.93
2023-05-01T11:37:35.234Z,988.96
2023-05-01T11:38:36.785Z,988.95
2023-05-01T11:39:37.382Z,988.91
2023-05-01T11:40:47.108Z,988.88
2023-05-01T11:41:48.369Z,988.89
2023-05-01T11:42:50.672Z,988.91
2023-05-01T11:43:52.447Z,988.92
2023-05-01T11:44:54.490Z,988.95
2023-05-01T11:45:55.875Z,988.9
2023-05-01T11:46:57.573Z,988.92
2023-05-01T11:48:01.355Z,988.9
2023-05-01T11:49:01.059Z,988.92
2023-05-01T11:50:02.775Z,988.89
2023-05-01T11:51:04.554Z,988.89
2023-05-01T11:52:06.303Z,988.91
2023-05-01T11:53:07.913Z,988.87
2023-05-01T11:54:09.638Z,988.89
2023-05-01T11:55:11.434Z,988.86
2023-05-01T11:56:23.117Z,988.9
2023-05-01T11:57:15.012Z,988.87
2023-05-01T11:58:16.776Z,988.86
2023-05-01T11:59:18.328Z,988.93
2023-05-01T12:00:20.096Z,988.88
2023-05-01T12:01:21.819Z,988.87
2023-05-01T12:02:23.653Z,988.86
2023-05-01T12:03:25.643Z,988.88
2023-05-01T12:04:30.730Z,988.84
2023-05-01T12:05:28.826Z,988.86
2023-05-01T12:06:30.529Z,988.85
2023-05-01T12:08:02.789Z,988.88
2023-05-01T12:09:11.295Z,988.83
2023-05-01T12:10:35.673Z,988.83
2023-05-01T12:11:53.105Z,988.84
2023-05-01T12:12:53.058Z,988.82
2023-05-01T12:13:54.766Z,988.81
2023-05-01T12:14:56.746Z,988.82
2023-05-01T12:15:58.220Z,988.78
2023-05-01T12:17:00.215Z,988.77
2023-05-01T12:18:01.904Z,988.8
2023-05-01T12:19:03.440Z,988.77
2023-05-01T12:20:05.172Z,988.83
2023-05-01T12:21:06.924Z,988.75
2023-05-01T12:22:08.623Z,988.76
2023-05-01T12:23:10.381Z,988.82
2023-05-01T12:24:12.226Z,988.79
2023-05-01T12:25:13.820Z,988.77
2023-05-01T12:26:15.592Z,988.82
2023-05-01T12:27:17.323Z,988.79
2023-05-01T12:28:19.146Z,988.77
2023-05-01T12:29:20.781Z,988.77
2023-05-01T12:30:22.564Z,988.77
2023-05-01T12:31:24.342Z,988.74
2023-05-01T12:32:26.107Z,988.74
2023-05-01T12:33:27.951Z,988.78
2023-05-01T12:34:29.449Z,988.78
2023-05-01T12:35:31.196Z,988.75
2023-05-01T12:36:32.925Z,988.79
2023-05-01T12:37:34.632Z,988.78
2023-05-01T12:38:36.355Z,988.76
2023-05-01T12:39:38.200Z,988.76
2023-05-01T12:40:39.841Z,988.76
2023-05-01T12:41:41.573Z,988.72
2023-05-01T12:42:43.366Z,988.79
2023-05-01T12:43:45.062Z,988.77
2023-05-01T12:44:46.798Z,988.75
2023-05-01T12:45:48.520Z,988.81
2023-05-01T12:46:53.228Z,988.74
2023-05-01T12:49:34.904Z,988.74
2023-05-01T12:50:36.649Z,988.66
2023-05-01T12:51:38.342Z,988.67
2023-05-01T12:52:40.078Z,988.71
2023-05-01T12:53:41.776Z,988.69
2023-05-01T12:59:28.753Z,988.63
2023-05-01T13:00:30.399Z,988.65
2023-05-01T13:01:32.143Z,988.63
2023-05-01T13:02:33.823Z,988.61
2023-05-01T13:03:38.509Z,988.59
2023-05-01T13:04:37.259Z,988.59
2023-05-01T13:05:38.969Z,988.53
2023-05-01T13:06:40.716Z,988.51
2023-05-01T13:07:42.420Z,988.52
2023-05-01T13:08:44.150Z,988.5
2023-05-01T13:09:45.871Z,988.47
2023-05-01T13:10:47.619Z,988.48
2023-05-01T13:11:49.365Z,988.46
2023-05-01T13:12:51.066Z,988.45